Time;durP1;ratioP1;P1;durP2;ratioP2;P2;SDS_P1;SDS_P2;PMS_P1;PMS_P2;Temp;Humidity;BMP_temperature;BMP_pressure;BME280_temperature;BME280_humidity;BME280_pressure;Samples;Min_cycle;Max_cycle;Signal;HPM_P1;HPM_P2
2023/05/16 00:00:33;;;;;;;18.83;3.55;;;;;;;;;;5009504;28;20049;-71
2023/05/16 00:03:00;;;;;;;13.32;3.08;;;;;;;;;;5017233;28;20058;-71
2023/05/16 00:05:26;;;;;;;18.35;3.40;;;;;;;;;;5032189;28;20461;-71
2023/05/16 00:07:52;;;;;;;16.25;3.17;;;;;;;;;;5025722;28;20038;-71
2023/05/16 00:10:18;;;;;;;18.58;3.22;;;;;;;;;;5013211;28;20057;-71
2023/05/16 00:12:44;;;;;;;16.00;3.30;;;;;;;;;;5014042;28;20478;-72
2023/05/16 00:15:14;;;;;;;14.73;3.47;;;;;;;;;;5015006;28;20057;-71
2023/05/16 00:17:42;;;;;;;16.83;2.72;;;;;;;;;;5033968;28;20391;-72
2023/05/16 00:20:09;;;;;;;15.45;2.70;;;;;;;;;;5033585;28;20053;-71
2023/05/16 00:22:36;;;;;;;17.17;3.40;;;;;;;;;;5031315;28;20478;-71
2023/05/16 00:25:02;;;;;;;15.48;3.10;;;;;;;;;;5013782;28;20049;-71
2023/05/16 00:27:29;;;;;;;15.90;3.00;;;;;;;;;;5032833;28;20045;-71
2023/05/16 00:29:55;;;;;;;13.68;3.33;;;;;;;;;;5030708;28;20046;-71
2023/05/16 00:32:21;;;;;;;16.90;3.33;;;;;;;;;;5017657;28;20045;-71
2023/05/16 00:34:47;;;;;;;14.02;3.28;;;;;;;;;;4996284;28;20439;-71
2023/05/16 00:37:13;;;;;;;15.13;3.03;;;;;;;;;;5011931;28;20049;-72
2023/05/16 00:39:39;;;;;;;16.40;2.85;;;;;;;;;;5013330;28;20046;-72
2023/05/16 00:42:05;;;;;;;16.17;3.05;;;;;;;;;;5009541;28;20056;-71
2023/05/16 00:44:32;;;;;;;15.60;3.22;;;;;;;;;;5012404;28;20050;-72
2023/05/16 00:46:59;;;;;;;13.43;2.83;;;;;;;;;;5013259;28;20050;-71
2023/05/16 00:49:25;;;;;;;13.30;3.28;;;;;;;;;;4979558;28;20045;-72
2023/05/16 00:51:51;;;;;;;15.57;3.60;;;;;;;;;;4979622;28;20088;-72
2023/05/16 00:54:18;;;;;;;15.48;3.17;;;;;;;;;;4995000;28;20034;-71
2023/05/16 00:56:44;;;;;;;16.17;2.85;;;;;;;;;;5027539;28;20049;-71
2023/05/16 00:59:10;;;;;;;16.98;3.03;;;;;;;;;;5031397;28;20045;-72
2023/05/16 01:01:37;;;;;;;14.25;2.90;;;;;;;;;;4995642;28;20049;-72
2023/05/16 01:04:03;;;;;;;14.05;2.92;;;;;;;;;;5012182;28;20054;-71
2023/05/16 01:06:29;;;;;;;13.95;3.00;;;;;;;;;;5012944;28;20060;-71
2023/05/16 01:08:55;;;;;;;13.45;2.70;;;;;;;;;;5011428;28;20096;-71
2023/05/16 01:11:23;;;;;;;18.15;2.70;;;;;;;;;;5012488;28;20042;-72
2023/05/16 01:13:52;;;;;;;14.57;2.97;;;;;;;;;;5011471;28;20415;-71
2023/05/16 01:16:22;;;;;;;14.25;3.05;;;;;;;;;;5011720;28;20076;-71
2023/05/16 01:18:54;;;;;;;18.35;3.20;;;;;;;;;;5010716;28;20042;-71
2023/05/16 01:21:34;;;;;;;12.73;2.72;;;;;;;;;;5012181;28;20057;-71
2023/05/16 01:24:04;;;;;;;11.88;2.53;;;;;;;;;;4994712;28;20038;-72
2023/05/16 01:26:31;;;;;;;12.98;2.80;;;;;;;;;;5010839;28;20060;-71
2023/05/16 01:28:57;;;;;;;14.25;3.20;;;;;;;;;;5011420;28;20050;-71
2023/05/16 01:31:23;;;;;;;13.00;2.85;;;;;;;;;;5018284;28;20085;-71
2023/05/16 01:33:49;;;;;;;15.55;3.45;;;;;;;;;;5032288;28;20486;-71
2023/05/16 01:36:23;;;;;;;14.40;2.75;;;;;;;;;;5015131;28;20061;-71
2023/05/16 01:39:06;;;;;;;11.10;2.40;;;;;;;;;;5032706;28;20394;-71
2023/05/16 01:41:53;;;;;;;11.75;2.88;;;;;;;;;;5032613;28;20052;-71
2023/05/16 01:44:31;;;;;;;16.58;3.22;;;;;;;;;;5019500;28;20049;-71
2023/05/16 01:46:59;;;;;;;14.05;2.97;;;;;;;;;;4994779;28;20077;-71
2023/05/16 01:49:38;;;;;;;15.82;3.22;;;;;;;;;;5011272;28;20134;-71
2023/05/16 01:52:25;;;;;;;16.88;2.63;;;;;;;;;;5010824;28;20077;-71
2023/05/16 01:54:53;;;;;;;15.57;2.90;;;;;;;;;;5011943;28;20145;-72
2023/05/16 01:57:19;;;;;;;13.13;2.67;;;;;;;;;;5023610;28;20085;-71
2023/05/16 01:59:46;;;;;;;16.60;2.72;;;;;;;;;;5014292;28;20042;-72
2023/05/16 02:02:17;;;;;;;15.30;2.95;;;;;;;;;;5012741;28;20410;-72
2023/05/16 02:04:43;;;;;;;11.70;2.90;;;;;;;;;;4978801;28;20045;-71
2023/05/16 02:07:09;;;;;;;17.75;3.10;;;;;;;;;;4994305;28;20146;-71
2023/05/16 02:09:35;;;;;;;12.95;2.63;;;;;;;;;;4977266;28;20072;-72
2023/05/16 02:12:01;;;;;;;14.55;2.72;;;;;;;;;;5011952;28;20038;-71
2023/05/16 02:14:28;;;;;;;14.68;2.92;;;;;;;;;;4995241;28;20379;-71
2023/05/16 02:16:54;;;;;;;19.05;3.40;;;;;;;;;;4994551;28;20049;-71
2023/05/16 02:19:20;;;;;;;13.98;3.13;;;;;;;;;;5009399;28;20049;-71
2023/05/16 02:21:46;;;;;;;15.00;2.75;;;;;;;;;;5011915;28;20127;-71
2023/05/16 02:24:12;;;;;;;13.82;3.08;;;;;;;;;;4994781;28;20073;-72
2023/05/16 02:26:38;;;;;;;11.38;2.90;;;;;;;;;;5011779;28;20443;-71
2023/05/16 02:29:04;;;;;;;17.05;3.00;;;;;;;;;;5011815;28;20048;-72
2023/05/16 02:31:31;;;;;;;11.73;2.65;;;;;;;;;;5012601;28;20046;-71
2023/05/16 02:33:58;;;;;;;16.33;2.90;;;;;;;;;;5013135;28;20072;-72
2023/05/16 02:36:24;;;;;;;20.60;3.00;;;;;;;;;;5004423;28;20057;-71
2023/05/16 02:38:50;;;;;;;11.38;3.17;;;;;;;;;;5034589;28;20180;-71
2023/05/16 02:41:16;;;;;;;17.02;2.90;;;;;;;;;;5032408;28;20092;-72
2023/05/16 02:43:43;;;;;;;15.55;3.17;;;;;;;;;;5014597;28;20069;-72
2023/05/16 02:46:25;;;;;;;15.13;2.95;;;;;;;;;;4981512;28;20056;-72
2023/05/16 02:48:51;;;;;;;14.30;2.78;;;;;;;;;;4997645;28;20502;-72
2023/05/16 02:51:17;;;;;;;16.88;3.25;;;;;;;;;;5013792;28;20368;-72
2023/05/16 02:53:43;;;;;;;13.00;3.03;;;;;;;;;;4981041;28;20045;-72
2023/05/16 02:56:09;;;;;;;11.02;2.47;;;;;;;;;;5021403;28;20047;-71
2023/05/16 02:58:35;;;;;;;13.60;3.10;;;;;;;;;;5035332;28;20099;-72
2023/05/16 03:01:01;;;;;;;18.95;3.50;;;;;;;;;;5020471;28;20081;-72
2023/05/16 03:03:28;;;;;;;14.18;2.95;;;;;;;;;;5015202;28;20133;-71
2023/05/16 03:05:54;;;;;;;16.88;3.25;;;;;;;;;;5015114;28;20050;-72
2023/05/16 03:08:20;;;;;;;12.50;3.08;;;;;;;;;;4997776;28;20454;-71
2023/05/16 03:10:46;;;;;;;15.98;3.05;;;;;;;;;;4997903;28;20054;-71
2023/05/16 03:13:12;;;;;;;13.80;3.13;;;;;;;;;;4997756;28;20042;-71
2023/05/16 03:15:38;;;;;;;17.80;3.17;;;;;;;;;;5015469;28;20038;-71
2023/05/16 03:18:04;;;;;;;16.35;3.25;;;;;;;;;;4997386;28;20046;-71
2023/05/16 03:20:30;;;;;;;18.98;3.38;;;;;;;;;;5015182;28;20108;-71
2023/05/16 03:22:56;;;;;;;14.73;3.10;;;;;;;;;;5014926;28;20041;-71
2023/05/16 03:25:22;;;;;;;15.25;3.03;;;;;;;;;;5019679;28;20041;-71
2023/05/16 03:27:48;;;;;;;14.55;2.88;;;;;;;;;;5035541;28;20410;-71
2023/05/16 03:30:15;;;;;;;12.35;2.92;;;;;;;;;;5026255;28;20056;-71
2023/05/16 03:32:41;;;;;;;13.98;3.03;;;;;;;;;;5018604;28;20045;-70
2023/05/16 03:35:07;;;;;;;11.80;2.92;;;;;;;;;;5016391;28;20502;-71
2023/05/16 03:37:33;;;;;;;12.25;3.20;;;;;;;;;;5014919;28;20046;-71
2023/05/16 03:39:59;;;;;;;14.07;3.13;;;;;;;;;;5013280;28;20042;-71
2023/05/16 03:42:26;;;;;;;14.75;3.20;;;;;;;;;;5008214;28;20560;-71
2023/05/16 03:44:52;;;;;;;13.18;2.92;;;;;;;;;;5015692;28;20034;-71
2023/05/16 03:47:18;;;;;;;14.50;3.00;;;;;;;;;;5034623;28;20457;-71
2023/05/16 03:49:44;;;;;;;13.30;3.03;;;;;;;;;;5034378;28;20401;-71
2023/05/16 03:52:10;;;;;;;15.63;2.88;;;;;;;;;;5032983;28;20052;-71
2023/05/16 03:54:36;;;;;;;12.30;3.08;;;;;;;;;;5030017;28;20045;-71
2023/05/16 03:57:02;;;;;;;14.23;2.90;;;;;;;;;;5014191;28;20557;-71
2023/05/16 03:59:28;;;;;;;10.05;2.70;;;;;;;;;;5013876;28;20049;-72
2023/05/16 04:01:54;;;;;;;13.60;2.80;;;;;;;;;;5013528;28;20125;-71
2023/05/16 04:04:20;;;;;;;10.05;2.60;;;;;;;;;;4996636;28;20045;-72
2023/05/16 04:06:46;;;;;;;14.15;2.92;;;;;;;;;;4996308;28;20049;-71
2023/05/16 04:09:12;;;;;;;12.00;2.70;;;;;;;;;;5013890;28;20474;-71
2023/05/16 04:11:39;;;;;;;12.82;2.97;;;;;;;;;;5013283;28;20042;-72
2023/05/16 04:14:05;;;;;;;11.07;3.08;;;;;;;;;;4995501;28;20045;-71
2023/05/16 04:16:31;;;;;;;12.57;2.92;;;;;;;;;;5013870;28;20049;-71
2023/05/16 04:18:58;;;;;;;9.18;2.58;;;;;;;;;;5012496;28;20142;-71
2023/05/16 04:21:24;;;;;;;15.63;2.88;;;;;;;;;;5011588;28;20045;-71
2023/05/16 04:23:50;;;;;;;11.90;2.92;;;;;;;;;;4995682;28;20046;-72
2023/05/16 04:26:16;;;;;;;13.70;2.72;;;;;;;;;;5013940;28;20144;-72
2023/05/16 04:28:42;;;;;;;12.02;2.70;;;;;;;;;;5013420;28;20045;-71
2023/05/16 04:31:09;;;;;;;12.52;2.63;;;;;;;;;;4994812;28;20050;-71
2023/05/16 04:33:36;;;;;;;15.63;2.70;;;;;;;;;;5013577;28;20065;-71
2023/05/16 04:36:02;;;;;;;13.55;2.97;;;;;;;;;;5013821;28;20396;-72
2023/05/16 04:38:28;;;;;;;13.70;2.88;;;;;;;;;;5011909;28;20050;-72
2023/05/16 04:40:54;;;;;;;11.07;2.60;;;;;;;;;;5012675;28;20050;-72
2023/05/16 04:43:20;;;;;;;15.40;3.17;;;;;;;;;;5011951;28;20084;-72
2023/05/16 04:45:47;;;;;;;12.70;2.35;;;;;;;;;;4995309;28;20073;-73
2023/05/16 04:48:14;;;;;;;16.08;2.90;;;;;;;;;;5011957;28;20049;-77
2023/05/16 04:50:40;;;;;;;13.05;2.90;;;;;;;;;;5012621;28;20050;-77
2023/05/16 04:53:06;;;;;;;13.77;2.55;;;;;;;;;;5012179;28;20030;-77
2023/05/16 04:55:32;;;;;;;17.90;3.00;;;;;;;;;;5013485;28;20045;-77
2023/05/16 04:57:58;;;;;;;13.55;2.60;;;;;;;;;;4995770;28;20057;-77
2023/05/16 05:00:24;;;;;;;12.30;2.58;;;;;;;;;;5012755;28;20042;-77
2023/05/16 05:02:50;;;;;;;10.50;2.50;;;;;;;;;;5013328;28;20084;-76
2023/05/16 05:05:16;;;;;;;12.95;2.38;;;;;;;;;;5013091;28;20062;-77
2023/05/16 05:07:42;;;;;;;16.70;2.92;;;;;;;;;;5011438;28;20100;-77
2023/05/16 05:10:09;;;;;;;10.15;2.65;;;;;;;;;;4995683;28;20420;-77
2023/05/16 05:12:36;;;;;;;12.80;2.72;;;;;;;;;;4995845;28;20045;-77
2023/05/16 05:15:02;;;;;;;20.52;2.90;;;;;;;;;;5013061;28;20042;-77
2023/05/16 05:17:29;;;;;;;14.55;2.88;;;;;;;;;;5013123;28;20542;-77
2023/05/16 05:19:55;;;;;;;9.35;2.67;;;;;;;;;;4994283;28;20495;-77
2023/05/16 05:22:21;;;;;;;8.20;2.42;;;;;;;;;;5032272;28;20049;-77
2023/05/16 05:24:47;;;;;;;15.02;2.85;;;;;;;;;;5012993;28;20049;-77
2023/05/16 05:27:13;;;;;;;12.95;2.63;;;;;;;;;;4994469;28;20046;-77
2023/05/16 05:29:39;;;;;;;13.98;2.58;;;;;;;;;;5010705;28;20053;-77
2023/05/16 05:32:05;;;;;;;13.45;2.17;;;;;;;;;;5016958;28;20435;-77
2023/05/16 05:34:32;;;;;;;13.23;3.08;;;;;;;;;;5011701;28;20410;-77
2023/05/16 05:36:58;;;;;;;11.95;2.85;;;;;;;;;;5012200;28;20065;-79
2023/05/16 05:39:25;;;;;;;15.32;2.75;;;;;;;;;;5010546;28;20045;-79
2023/05/16 05:41:51;;;;;;;11.57;2.83;;;;;;;;;;5011176;28;20053;-79
2023/05/16 05:44:17;;;;;;;13.95;2.50;;;;;;;;;;4978720;28;20133;-79
2023/05/16 05:46:43;;;;;;;11.93;2.70;;;;;;;;;;4995707;28;20434;-79
2023/05/16 05:49:09;;;;;;;7.80;2.33;;;;;;;;;;5011448;28;20049;-78
2023/05/16 05:51:35;;;;;;;13.50;2.42;;;;;;;;;;5012731;28;20045;-80
2023/05/16 05:54:02;;;;;;;12.50;2.38;;;;;;;;;;5010895;28;20061;-78
2023/05/16 05:56:28;;;;;;;10.35;2.42;;;;;;;;;;5016373;28;20037;-78
2023/05/16 05:58:54;;;;;;;10.88;2.25;;;;;;;;;;5012643;28;20569;-77
2023/05/16 06:01:21;;;;;;;8.27;1.90;;;;;;;;;;5011066;28;20049;-79
2023/05/16 06:03:47;;;;;;;13.40;2.58;;;;;;;;;;5012609;28;20057;-79
2023/05/16 06:06:14;;;;;;;9.40;2.28;;;;;;;;;;5012366;28;20046;-79
2023/05/16 06:08:40;;;;;;;7.30;2.00;;;;;;;;;;5012411;28;20492;-79
2023/05/16 06:11:06;;;;;;;8.45;2.10;;;;;;;;;;5015094;28;20050;-79
2023/05/16 06:13:32;;;;;;;11.88;2.60;;;;;;;;;;5015176;28;20101;-78
2023/05/16 06:15:59;;;;;;;10.20;2.10;;;;;;;;;;5014686;28;20093;-79
2023/05/16 06:18:25;;;;;;;10.70;2.15;;;;;;;;;;5018379;28;20052;-79
2023/05/16 06:20:53;;;;;;;11.70;2.55;;;;;;;;;;5028452;28;20144;-78
2023/05/16 06:23:19;;;;;;;13.38;2.38;;;;;;;;;;5016602;28;20073;-79
2023/05/16 06:25:45;;;;;;;13.00;2.15;;;;;;;;;;5019164;28;20422;-76
2023/05/16 06:28:11;;;;;;;11.73;2.53;;;;;;;;;;5020793;28;20128;-77
2023/05/16 06:30:37;;;;;;;9.73;2.38;;;;;;;;;;5015003;28;20125;-79
2023/05/16 06:33:03;;;;;;;7.53;2.03;;;;;;;;;;5012682;28;20038;-79
2023/05/16 06:35:29;;;;;;;7.47;1.95;;;;;;;;;;5016431;28;20041;-79
2023/05/16 06:37:55;;;;;;;8.43;2.17;;;;;;;;;;5015072;28;20434;-79
2023/05/16 06:40:21;;;;;;;10.35;2.00;;;;;;;;;;5034463;28;20391;-79
2023/05/16 06:42:47;;;;;;;6.93;1.80;;;;;;;;;;5033060;28;20128;-79
2023/05/16 06:45:13;;;;;;;9.35;2.30;;;;;;;;;;5019543;28;20081;-79
2023/05/16 06:47:39;;;;;;;7.57;2.10;;;;;;;;;;5016856;28;20038;-79
2023/05/16 06:50:07;;;;;;;10.60;2.15;;;;;;;;;;4981080;28;20042;-79
2023/05/16 06:52:33;;;;;;;9.13;1.98;;;;;;;;;;5015828;28;20533;-79
2023/05/16 06:54:59;;;;;;;10.32;1.95;;;;;;;;;;5015572;28;20100;-80
2023/05/16 06:57:25;;;;;;;5.97;2.00;;;;;;;;;;5014219;28;20077;-79
2023/05/16 06:59:51;;;;;;;6.47;1.80;;;;;;;;;;5015149;28;20056;-80
2023/05/16 07:02:17;;;;;;;4.93;1.67;;;;;;;;;;5013416;28;20048;-79
2023/05/16 07:04:43;;;;;;;5.20;1.88;;;;;;;;;;4997494;28;20141;-80
2023/05/16 07:07:09;;;;;;;8.30;1.85;;;;;;;;;;5009284;28;20050;-79
2023/05/16 07:09:35;;;;;;;9.15;2.25;;;;;;;;;;4995796;28;20056;-79
2023/05/16 07:12:01;;;;;;;5.70;1.90;;;;;;;;;;4990531;28;20045;-80
2023/05/16 07:14:27;;;;;;;9.68;2.33;;;;;;;;;;5014703;28;20046;-80
2023/05/16 07:16:53;;;;;;;19.08;2.67;;;;;;;;;;5014270;28;20149;-80
2023/05/16 07:19:19;;;;;;;10.32;2.28;;;;;;;;;;5014743;28;20120;-80
2023/05/16 07:21:45;;;;;;;8.82;2.08;;;;;;;;;;5013844;28;20501;-80
2023/05/16 07:24:11;;;;;;;9.40;2.40;;;;;;;;;;4997668;28;20325;-80
2023/05/16 07:26:37;;;;;;;8.23;2.30;;;;;;;;;;5013872;28;20454;-80
2023/05/16 07:29:03;;;;;;;11.48;2.53;;;;;;;;;;4995445;28;20042;-79
2023/05/16 07:31:30;;;;;;;14.85;2.40;;;;;;;;;;5012394;28;20081;-80
2023/05/16 07:33:56;;;;;;;14.63;2.53;;;;;;;;;;4997132;28;20046;-80
2023/05/16 07:36:22;;;;;;;11.00;2.25;;;;;;;;;;4997575;28;20046;-80
2023/05/16 07:38:48;;;;;;;10.93;2.50;;;;;;;;;;4995461;28;20060;-80
2023/05/16 07:41:14;;;;;;;9.15;2.22;;;;;;;;;;5013953;28;20240;-79
2023/05/16 07:43:40;;;;;;;12.38;2.47;;;;;;;;;;5014917;28;20041;-80
2023/05/16 07:46:07;;;;;;;15.23;2.60;;;;;;;;;;5014610;28;20050;-80
2023/05/16 07:48:33;;;;;;;11.85;2.97;;;;;;;;;;5013169;28;20046;-79
2023/05/16 07:50:59;;;;;;;17.13;2.50;;;;;;;;;;5013195;28;20084;-80
2023/05/16 07:53:25;;;;;;;11.02;2.40;;;;;;;;;;5014699;28;20442;-80
2023/05/16 07:55:51;;;;;;;11.77;2.78;;;;;;;;;;5014368;28;20042;-80
2023/05/16 07:58:17;;;;;;;9.75;2.28;;;;;;;;;;5012919;28;20056;-80
2023/05/16 08:00:43;;;;;;;12.15;2.25;;;;;;;;;;5012472;28;20050;-79
2023/05/16 08:03:09;;;;;;;8.18;2.22;;;;;;;;;;5012588;28;20133;-80
2023/05/16 08:05:38;;;;;;;9.70;2.30;;;;;;;;;;5014216;28;20049;-81
2023/05/16 08:08:05;;;;;;;12.48;2.63;;;;;;;;;;5014508;28;20041;-80
2023/05/16 08:10:31;;;;;;;12.60;2.30;;;;;;;;;;5012798;28;20050;-81
2023/05/16 08:12:57;;;;;;;14.00;3.05;;;;;;;;;;5014229;28;20046;-80
2023/05/16 08:15:23;;;;;;;9.35;2.38;;;;;;;;;;5012569;28;20467;-80
2023/05/16 08:17:49;;;;;;;10.13;2.42;;;;;;;;;;5013844;28;20108;-80
2023/05/16 08:20:15;;;;;;;8.02;2.33;;;;;;;;;;5012310;28;20084;-80
2023/05/16 08:22:41;;;;;;;8.73;2.08;;;;;;;;;;5012446;28;20064;-80
2023/05/16 08:25:09;;;;;;;7.50;1.75;;;;;;;;;;5012521;28;20409;-79
2023/05/16 08:27:35;;;;;;;9.93;1.80;;;;;;;;;;4996027;28;20053;-77
2023/05/16 08:30:01;;;;;;;8.20;1.95;;;;;;;;;;5011945;28;20042;-78
2023/05/16 08:32:27;;;;;;;8.10;1.83;;;;;;;;;;5011069;28;20050;-78
2023/05/16 08:34:54;;;;;;;9.35;2.03;;;;;;;;;;5012032;28;20037;-78
2023/05/16 08:37:20;;;;;;;12.48;2.28;;;;;;;;;;5013440;28;20065;-79
2023/05/16 08:39:46;;;;;;;8.20;2.10;;;;;;;;;;5013221;28;20050;-77
2023/05/16 08:42:12;;;;;;;12.25;2.30;;;;;;;;;;5012138;28;20046;-76
2023/05/16 08:44:38;;;;;;;9.38;2.45;;;;;;;;;;5012108;28;20100;-80
2023/05/16 08:47:12;;;;;;;10.73;2.20;;;;;;;;;;5013059;28;20137;-81
2023/05/16 08:49:39;;;;;;;10.30;2.30;;;;;;;;;;4996008;28;20100;-81
2023/05/16 08:52:06;;;;;;;11.25;2.67;;;;;;;;;;5012012;28;20441;-81
2023/05/16 08:54:33;;;;;;;10.07;2.63;;;;;;;;;;5010555;28;20418;-80
2023/05/16 08:57:01;;;;;;;9.23;2.30;;;;;;;;;;5011715;28;20049;-80
2023/05/16 08:59:27;;;;;;;14.77;2.40;;;;;;;;;;5012909;28;20125;-80
2023/05/16 09:01:54;;;;;;;11.63;2.50;;;;;;;;;;5012885;28;20375;-81
2023/05/16 09:04:20;;;;;;;9.75;2.55;;;;;;;;;;5013076;28;20125;-81
2023/05/16 09:06:47;;;;;;;9.13;2.10;;;;;;;;;;4995420;28;20049;-80
2023/05/16 09:09:13;;;;;;;11.20;2.47;;;;;;;;;;5013108;28;20065;-80
2023/05/16 09:11:39;;;;;;;11.18;2.38;;;;;;;;;;5013037;28;20069;-81
2023/05/16 09:14:05;;;;;;;9.23;2.28;;;;;;;;;;5011619;28;20495;-81
2023/05/16 09:16:31;;;;;;;10.77;1.98;;;;;;;;;;5013596;28;20037;-81
2023/05/16 09:18:58;;;;;;;13.00;2.28;;;;;;;;;;5018227;28;20057;-77
2023/05/16 09:21:34;;;;;;;7.82;2.05;;;;;;;;;;5024650;28;20219;-77
2023/05/16 09:24:04;;;;;;;10.27;2.22;;;;;;;;;;5022889;28;20049;-81
2023/05/16 09:26:30;;;;;;;9.27;2.28;;;;;;;;;;5013534;28;20050;-81
2023/05/16 09:28:56;;;;;;;12.10;2.35;;;;;;;;;;5012939;28;20384;-81
2023/05/16 09:31:25;;;;;;;9.82;2.17;;;;;;;;;;5012010;28;20173;-81
2023/05/16 09:33:52;;;;;;;11.82;2.10;;;;;;;;;;5011592;28;20486;-81
2023/05/16 09:36:18;;;;;;;8.30;2.00;;;;;;;;;;5012931;28;20038;-80
2023/05/16 09:38:44;;;;;;;7.50;2.00;;;;;;;;;;5012853;28;20057;-80
2023/05/16 09:41:10;;;;;;;8.02;1.98;;;;;;;;;;5012644;28;20042;-81
2023/05/16 09:43:40;;;;;;;7.72;1.80;;;;;;;;;;5012562;28;20128;-80
2023/05/16 09:46:06;;;;;;;10.05;2.00;;;;;;;;;;5012147;28;20564;-79
2023/05/16 09:48:32;;;;;;;8.82;2.05;;;;;;;;;;4993817;28;20070;-80
2023/05/16 09:51:03;;;;;;;8.05;2.30;;;;;;;;;;5012192;28;20096;-80
2023/05/16 09:53:32;;;;;;;8.68;2.20;;;;;;;;;;5011820;28;20564;-80
2023/05/16 09:56:01;;;;;;;7.00;2.10;;;;;;;;;;5012447;28;20041;-80
2023/05/16 09:58:31;;;;;;;7.10;1.92;;;;;;;;;;5011003;28;20038;-80
2023/05/16 10:00:58;;;;;;;12.02;2.45;;;;;;;;;;4994166;28;20069;-80
2023/05/16 10:03:25;;;;;;;10.32;2.03;;;;;;;;;;5009610;28;20111;-79
2023/05/16 10:05:51;;;;;;;9.43;2.40;;;;;;;;;;4994689;28;20053;-81
2023/05/16 10:08:20;;;;;;;9.27;1.95;;;;;;;;;;5012455;28;20053;-80
2023/05/16 10:10:48;;;;;;;9.80;2.10;;;;;;;;;;5012329;28;20045;-80
2023/05/16 10:13:14;;;;;;;11.82;1.98;;;;;;;;;;5012076;28;20129;-81
2023/05/16 10:15:41;;;;;;;9.90;2.28;;;;;;;;;;5012404;28;20100;-81
2023/05/16 10:18:11;;;;;;;8.95;2.00;;;;;;;;;;4994922;28;20239;-80
2023/05/16 10:20:39;;;;;;;9.75;1.92;;;;;;;;;;5011869;28;20429;-80
2023/05/16 10:23:05;;;;;;;7.15;2.03;;;;;;;;;;5012407;28;20045;-81
2023/05/16 10:25:41;;;;;;;10.30;2.10;;;;;;;;;;5012269;28;20379;-80
2023/05/16 10:28:11;;;;;;;8.30;2.10;;;;;;;;;;4994752;28;20133;-81
2023/05/16 10:30:39;;;;;;;9.50;2.17;;;;;;;;;;4993963;28;20052;-81
2023/05/16 10:33:06;;;;;;;7.97;2.03;;;;;;;;;;5009869;28;20490;-80
2023/05/16 10:35:32;;;;;;;7.18;1.92;;;;;;;;;;4994457;28;20084;-80
2023/05/16 10:37:58;;;;;;;8.52;2.20;;;;;;;;;;5010509;28;20083;-80
2023/05/16 10:40:25;;;;;;;9.38;2.00;;;;;;;;;;4977431;28;20065;-80
2023/05/16 10:42:55;;;;;;;11.30;1.92;;;;;;;;;;5009870;28;20376;-80
2023/05/16 10:45:21;;;;;;;8.68;1.95;;;;;;;;;;4978036;28;20054;-81
2023/05/16 10:47:53;;;;;;;7.70;1.83;;;;;;;;;;5011769;28;20514;-79
2023/05/16 10:50:38;;;;;;;8.15;1.90;;;;;;;;;;4993488;28;20056;-79
2023/05/16 10:53:16;;;;;;;10.40;2.22;;;;;;;;;;5011775;28;20046;-79
2023/05/16 10:56:00;;;;;;;5.88;1.75;;;;;;;;;;5013137;28;20046;-79
2023/05/16 10:58:35;;;;;;;5.80;1.90;;;;;;;;;;5015640;28;20089;-79
2023/05/16 11:01:17;;;;;;;8.60;1.90;;;;;;;;;;4997677;28;20149;-80
2023/05/16 11:03:58;;;;;;;6.20;1.65;;;;;;;;;;4981618;28;20061;-80
2023/05/16 11:06:26;;;;;;;12.57;2.20;;;;;;;;;;4981432;28;20058;-80
2023/05/16 11:11:43;;;;;;;7.32;2.00;;;;;;;;;;4998119;28;20072;-80
2023/05/16 11:14:09;;;;;;;7.40;2.30;;;;;;;;;;4997291;28;20061;-81
2023/05/16 11:16:36;;;;;;;6.95;1.90;;;;;;;;;;5014058;28;20540;-81
2023/05/16 11:19:05;;;;;;;5.45;1.77;;;;;;;;;;5013570;28;20077;-79
2023/05/16 11:21:50;;;;;;;5.68;1.95;;;;;;;;;;4996546;28;20053;-80
2023/05/16 11:24:29;;;;;;;6.82;2.10;;;;;;;;;;5014789;28;20380;-81
2023/05/16 11:26:56;;;;;;;11.93;3.10;;;;;;;;;;5013729;28;20109;-80
2023/05/16 11:29:22;;;;;;;7.90;2.13;;;;;;;;;;4997457;28;20097;-79
2023/05/16 11:31:49;;;;;;;5.28;1.83;;;;;;;;;;4997493;28;20042;-80
2023/05/16 11:34:15;;;;;;;6.43;2.00;;;;;;;;;;5013421;28;20137;-80
2023/05/16 11:36:41;;;;;;;8.70;2.10;;;;;;;;;;5014860;28;20100;-79
2023/05/16 11:39:09;;;;;;;7.13;2.20;;;;;;;;;;5014618;28;20414;-79
2023/05/16 11:41:35;;;;;;;8.68;2.45;;;;;;;;;;5014311;28;20100;-80
2023/05/16 11:44:01;;;;;;;11.73;2.60;;;;;;;;;;5013484;28;20380;-80
2023/05/16 11:46:27;;;;;;;12.90;2.67;;;;;;;;;;5013628;28;20133;-80
2023/05/16 11:48:53;;;;;;;11.98;2.22;;;;;;;;;;4996624;28;20042;-80
2023/05/16 11:51:20;;;;;;;9.48;2.28;;;;;;;;;;5014368;28;20085;-80
2023/05/16 11:53:48;;;;;;;7.90;2.08;;;;;;;;;;4994910;28;20445;-80
2023/05/16 11:56:14;;;;;;;10.40;2.53;;;;;;;;;;5012170;28;20457;-81
2023/05/16 11:58:41;;;;;;;6.90;2.28;;;;;;;;;;4979875;28;20137;-79
2023/05/16 12:01:09;;;;;;;7.65;2.58;;;;;;;;;;4996278;28;20045;-80
2023/05/16 12:03:35;;;;;;;11.75;2.80;;;;;;;;;;4996342;28;20058;-78
2023/05/16 12:06:01;;;;;;;8.52;2.40;;;;;;;;;;4995567;28;20092;-80
2023/05/16 12:08:28;;;;;;;9.77;2.45;;;;;;;;;;5014337;28;20096;-80
2023/05/16 12:10:54;;;;;;;11.18;2.78;;;;;;;;;;4980338;28;20049;-80
2023/05/16 12:13:21;;;;;;;7.28;2.65;;;;;;;;;;4996779;28;20042;-80
2023/05/16 12:15:47;;;;;;;8.88;2.60;;;;;;;;;;4995329;28;20077;-79
2023/05/16 12:18:14;;;;;;;11.52;3.05;;;;;;;;;;4996361;28;20089;-80
2023/05/16 12:20:40;;;;;;;11.00;2.88;;;;;;;;;;5014608;28;20046;-79
2023/05/16 12:23:10;;;;;;;8.18;2.50;;;;;;;;;;5024921;28;20129;-76
2023/05/16 12:25:40;;;;;;;10.95;2.97;;;;;;;;;;5011506;28;20049;-79
2023/05/16 12:28:07;;;;;;;10.85;2.95;;;;;;;;;;4996888;28;20058;-79
2023/05/16 12:30:33;;;;;;;7.13;2.40;;;;;;;;;;5013878;28;20076;-79
2023/05/16 12:33:00;;;;;;;6.13;2.47;;;;;;;;;;4996099;28;20344;-79
2023/05/16 12:35:30;;;;;;;8.85;2.47;;;;;;;;;;5013988;28;20046;-79
2023/05/16 12:37:57;;;;;;;12.07;2.85;;;;;;;;;;5013895;28;20054;-80
2023/05/16 12:40:23;;;;;;;8.00;2.85;;;;;;;;;;4995659;28;20494;-81
2023/05/16 12:42:51;;;;;;;9.60;3.10;;;;;;;;;;5013163;28;20469;-80
2023/05/16 12:45:17;;;;;;;9.07;3.20;;;;;;;;;;4995803;28;20132;-80
2023/05/16 12:47:44;;;;;;;10.85;2.90;;;;;;;;;;5013667;28;20096;-80
2023/05/16 12:50:13;;;;;;;7.35;3.28;;;;;;;;;;5013166;28;20042;-80
2023/05/16 12:52:49;;;;;;;10.98;3.60;;;;;;;;;;4995462;28;20049;-80
2023/05/16 12:55:19;;;;;;;10.82;3.70;;;;;;;;;;5013137;28;20509;-80
2023/05/16 12:57:48;;;;;;;9.73;3.38;;;;;;;;;;4994555;28;20053;-80
2023/05/16 13:00:17;;;;;;;8.05;3.30;;;;;;;;;;4994887;28;20056;-79
2023/05/16 13:02:43;;;;;;;7.82;3.60;;;;;;;;;;5012096;28;20164;-80
2023/05/16 13:05:09;;;;;;;8.23;3.22;;;;;;;;;;5010070;28;20127;-81
2023/05/16 13:07:36;;;;;;;10.50;3.22;;;;;;;;;;5012228;28;20128;-80
2023/05/16 13:10:03;;;;;;;9.18;3.22;;;;;;;;;;4995495;28;20074;-80
2023/05/16 13:12:29;;;;;;;10.90;3.40;;;;;;;;;;5011786;28;20038;-80
2023/05/16 13:14:55;;;;;;;8.85;3.10;;;;;;;;;;5012038;28;20430;-80
2023/05/16 13:17:22;;;;;;;10.48;3.42;;;;;;;;;;5012677;28;20130;-80
2023/05/16 13:19:49;;;;;;;10.35;3.13;;;;;;;;;;5011746;28;20046;-80
2023/05/16 13:22:15;;;;;;;9.60;3.28;;;;;;;;;;5011643;28;20116;-80
2023/05/16 13:24:41;;;;;;;10.65;3.03;;;;;;;;;;5013125;28;20093;-79
2023/05/16 13:27:07;;;;;;;7.50;3.03;;;;;;;;;;5012875;28;20045;-80
2023/05/16 13:29:33;;;;;;;7.93;2.90;;;;;;;;;;5012845;28;20414;-81
2023/05/16 13:31:59;;;;;;;7.90;2.90;;;;;;;;;;5012736;28;20061;-81
2023/05/16 13:34:25;;;;;;;8.10;2.63;;;;;;;;;;5011698;28;20542;-81
2023/05/16 13:36:51;;;;;;;7.63;3.10;;;;;;;;;;5012792;28;20111;-81
2023/05/16 13:39:17;;;;;;;5.45;3.15;;;;;;;;;;4993059;28;20049;-80
2023/05/16 13:41:43;;;;;;;7.10;3.13;;;;;;;;;;5010167;28;20557;-80
2023/05/16 13:44:10;;;;;;;6.10;3.10;;;;;;;;;;5011553;28;20169;-80
2023/05/16 13:46:36;;;;;;;6.95;3.35;;;;;;;;;;5012190;28;20060;-80
2023/05/16 13:49:02;;;;;;;6.38;3.05;;;;;;;;;;5012699;28;20038;-79
2023/05/16 13:51:28;;;;;;;7.40;3.20;;;;;;;;;;5012346;28;20050;-79
2023/05/16 13:53:55;;;;;;;7.78;3.58;;;;;;;;;;5012279;28;20048;-79
2023/05/16 13:56:21;;;;;;;10.77;3.58;;;;;;;;;;5011448;28;20060;-80
2023/05/16 13:58:49;;;;;;;9.60;3.65;;;;;;;;;;5011951;28;20521;-80
2023/05/16 14:01:15;;;;;;;5.85;3.30;;;;;;;;;;5008879;28;20069;-80
2023/05/16 14:03:41;;;;;;;10.90;3.22;;;;;;;;;;5011592;28;20064;-80
2023/05/16 14:06:07;;;;;;;8.65;3.40;;;;;;;;;;5012519;28;20093;-81
2023/05/16 14:08:33;;;;;;;9.82;3.15;;;;;;;;;;4994790;28;20120;-80
2023/05/16 14:10:59;;;;;;;7.18;3.38;;;;;;;;;;5012134;28;20372;-80
2023/05/16 14:13:25;;;;;;;8.73;3.20;;;;;;;;;;4994787;28;20050;-80
2023/05/16 14:15:51;;;;;;;7.38;3.13;;;;;;;;;;4994490;28;20046;-80
2023/05/16 14:18:18;;;;;;;6.32;2.80;;;;;;;;;;4994499;28;20133;-80
2023/05/16 14:20:44;;;;;;;10.65;3.30;;;;;;;;;;4994344;28;20061;-79
2023/05/16 14:23:10;;;;;;;7.45;3.40;;;;;;;;;;4994873;28;20054;-80
2023/05/16 14:25:36;;;;;;;7.85;3.20;;;;;;;;;;5012465;28;20398;-80
2023/05/16 14:28:02;;;;;;;9.50;3.15;;;;;;;;;;5011424;28;20045;-80
2023/05/16 14:30:28;;;;;;;8.98;3.03;;;;;;;;;;5014536;28;20532;-80
2023/05/16 14:32:55;;;;;;;8.00;3.05;;;;;;;;;;4998476;28;20075;-81
2023/05/16 14:35:20;;;;;;;9.32;3.42;;;;;;;;;;5016184;28;20053;-79
2023/05/16 14:37:46;;;;;;;8.15;2.83;;;;;;;;;;5016106;28;20049;-80